Time;durP1;ratioP1;P1;durP2;ratioP2;P2;SDS_P1;SDS_P2;PMS_P1;PMS_P2;Temp;Humidity;BMP_temperature;BMP_pressure;BME280_temperature;BME280_humidity;BME280_pressure;Samples;Min_cycle;Max_cycle;Signal;HPM_P1;HPM_P2
2022/06/02 00:00:49;;;;;;;;;3.00;3.00;;;;;17.85;41.35;101538.63;4980337;28;45543;-71
2022/06/02 00:03:25;;;;;;;;;2.00;2.00;;;;;17.82;41.62;101537.06;5005730;28;45510;-67
2022/06/02 00:06:24;;;;;;;;;3.00;3.00;;;;;17.81;41.23;101542.53;5079861;27;45428;-69
2022/06/02 00:08:59;;;;;;;;;1.75;1.75;;;;;17.80;41.50;101543.50;5107357;27;45439;-72
2022/06/02 00:11:57;;;;;;;;;3.50;2.00;;;;;17.80;41.44;101551.50;5105097;27;45479;-71
2022/06/02 00:14:40;;;;;;;;;2.00;2.00;;;;;17.76;41.69;101542.00;5085409;27;45854;-70
2022/06/02 00:17:23;;;;;;;;;2.00;2.00;;;;;17.75;41.58;101549.16;5109898;27;45671;-70
2022/06/02 00:20:12;;;;;;;;;2.50;2.00;;;;;17.72;41.57;101545.91;5110099;27;45656;-70
2022/06/02 00:22:52;;;;;;;;;1.75;1.75;;;;;17.71;41.69;101550.38;5106719;27;45576;-67
2022/06/02 00:25:30;;;;;;;;;3.00;1.75;;;;;17.71;41.87;101549.53;5107992;27;45710;-68
2022/06/02 00:28:08;;;;;;;;;3.50;3.00;;;;;17.70;41.89;101555.81;5100638;27;45542;-68
2022/06/02 00:30:52;;;;;;;;;4.00;2.00;;;;;17.68;42.00;101555.03;5107825;27;45468;-73
2022/06/02 00:33:50;;;;;;;;;4.25;3.00;;;;;17.68;42.04;101565.69;5109608;27;45497;-68
2022/06/02 00:36:23;;;;;;;;;1.25;1.25;;;;;17.65;41.88;101560.63;5105715;27;45474;-67
2022/06/02 00:38:50;;;;;;;;;3.25;3.00;;;;;17.59;42.36;101559.25;5105541;27;45487;-68
2022/06/02 00:41:24;;;;;;;;;2.00;2.00;;;;;17.57;42.14;101566.53;5110023;27;46302;-66
2022/06/02 00:43:50;;;;;;;;;5.00;3.00;;;;;17.52;42.13;101569.53;5106899;27;45436;-70
2022/06/02 00:46:33;;;;;;;;;4.00;1.75;;;;;17.48;42.08;101568.06;5107785;27;45531;-69
2022/06/02 00:49:21;;;;;;;;;3.25;2.50;;;;;17.45;42.12;101570.94;5100792;27;45364;-71
2022/06/02 00:51:53;;;;;;;;;2.00;2.00;;;;;17.36;42.33;101573.44;5108735;27;45518;-69
2022/06/02 00:57:42;;;;;;;;;4.00;4.00;;;;;17.25;42.55;101555.63;5106709;27;45731;-69
2022/06/02 01:00:14;;;;;;;;;3.25;3.00;;;;;17.20;42.50;101563.94;5105475;27;45525;-68
2022/06/02 01:03:02;;;;;;;;;3.25;2.75;;;;;17.16;42.57;101559.81;5105829;27;45631;-74
2022/06/02 01:06:10;;;;;;;;;3.00;2.75;;;;;17.15;42.70;101570.59;5098615;27;45381;-71
2022/06/02 01:09:01;;;;;;;;;4.00;3.50;;;;;17.14;42.76;101560.88;5106376;27;45418;-71
2022/06/02 01:11:46;;;;;;;;;3.00;3.00;;;;;17.12;42.88;101560.16;5104810;27;45541;-75
2022/06/02 01:14:30;;;;;;;;;6.00;3.25;;;;;17.09;42.94;101565.72;5105456;27;45457;-68
2022/06/02 01:17:22;;;;;;;;;3.50;3.25;;;;;17.04;43.07;101560.69;5106018;27;46546;-70
2022/06/02 01:20:26;;;;;;;;;4.00;2.75;;;;;17.01;42.93;101569.78;5103399;27;45950;-71
2022/06/02 01:23:07;;;;;;;;;7.00;3.00;;;;;17.00;43.06;101554.78;5078954;28;45441;-72
2022/06/02 01:26:08;;;;;;;;;3.25;3.25;;;;;16.94;43.16;101557.03;5078633;28;46253;-72
2022/06/02 01:28:48;;;;;;;;;3.50;3.50;;;;;16.90;43.17;101560.84;5089419;27;45378;-72
2022/06/02 01:31:33;;;;;;;;;6.00;4.50;;;;;16.89;43.53;101567.16;5101240;27;45315;-72
2022/06/02 01:34:38;;;;;;;;;4.00;3.75;;;;;16.86;43.43;101556.72;5101237;27;45285;-73
2022/06/02 01:37:19;;;;;;;;;2.00;2.00;;;;;16.81;43.40;101556.22;5100901;27;46164;-73
2022/06/02 01:39:54;;;;;;;;;3.25;3.25;;;;;16.81;43.64;101558.88;5101118;27;45509;-72
2022/06/02 01:42:50;;;;;;;;;4.50;3.25;;;;;16.79;43.62;101556.31;5102598;27;45472;-73
2022/06/02 01:45:52;;;;;;;;;4.50;3.25;;;;;16.72;43.68;101547.09;5103908;27;45304;-72
2022/06/02 01:48:24;;;;;;;;;4.00;4.00;;;;;16.68;43.88;101559.75;5104226;27;45489;-70
2022/06/02 01:51:23;;;;;;;;;3.00;3.00;;;;;16.66;43.78;101566.09;5104557;27;45210;-72
2022/06/02 01:53:54;;;;;;;;;3.25;3.25;;;;;16.61;43.85;101577.09;5104268;27;45380;-71
2022/06/02 01:56:53;;;;;;;;;4.00;4.00;;;;;16.54;44.01;101578.50;5104354;27;45490;-72
2022/06/02 01:59:37;;;;;;;;;6.50;3.00;;;;;16.49;43.90;101580.59;5104591;27;45335;-72
2022/06/02 02:02:15;;;;;;;;;4.00;4.00;;;;;16.48;44.14;101566.47;5104204;27;45626;-71
2022/06/02 02:05:08;;;;;;;;;4.50;3.25;;;;;16.44;44.22;101574.78;5104294;27;45358;-72
2022/06/02 02:08:06;;;;;;;;;6.50;3.75;;;;;16.36;44.27;101569.16;5103549;27;45679;-71
2022/06/02 02:11:03;;;;;;;;;1.75;1.75;;;;;16.34;44.51;101573.72;5103680;27;45230;-73
2022/06/02 02:13:47;;;;;;;;;6.00;4.00;;;;;16.30;44.52;101578.41;5104060;27;45455;-73
2022/06/02 02:16:37;;;;;;;;;2.75;2.50;;;;;16.27;44.46;101573.28;5104111;27;45237;-73
2022/06/02 02:19:20;;;;;;;;;3.00;3.00;;;;;16.25;44.58;101564.56;5104133;27;45449;-72
2022/06/02 02:22:00;;;;;;;;;4.75;3.00;;;;;16.22;44.70;101570.13;5104034;27;45413;-72
2022/06/02 02:24:45;;;;;;;;;6.25;5.00;;;;;16.17;44.75;101567.75;5103345;27;45233;-72
2022/06/02 02:27:16;;;;;;;;;4.00;4.00;;;;;16.18;44.91;101569.47;5104208;27;45435;-73
2022/06/02 02:30:04;;;;;;;;;6.00;4.00;;;;;16.18;44.76;101564.16;5104041;27;45326;-73
2022/06/02 02:32:52;;;;;;;;;0.00;0.00;;;;;16.13;44.96;101565.44;5103659;27;47909;-72
2022/06/02 02:35:29;;;;;;;;;4.00;4.00;;;;;16.09;44.90;101556.81;5103977;27;45311;-73
2022/06/02 02:38:06;;;;;;;;;5.00;2.00;;;;;16.08;45.06;101565.75;5103589;27;45375;-71
2022/06/02 02:40:42;;;;;;;;;6.00;4.00;;;;;16.04;45.27;101564.28;5103777;27;45371;-73
2022/06/02 02:43:34;;;;;;;;;3.75;3.75;;;;;16.03;45.31;101569.66;5103931;27;45473;-73
2022/06/02 02:46:13;;;;;;;;;5.25;4.00;;;;;15.97;45.13;101564.81;5103736;27;45351;-73
2022/06/02 02:48:52;;;;;;;;;5.00;5.00;;;;;15.96;45.50;101561.28;5103650;27;45299;-72
2022/06/02 02:51:38;;;;;;;;;6.50;5.00;;;;;15.98;45.54;101561.19;5103890;27;45165;-72
2022/06/02 02:54:10;;;;;;;;;6.50;5.50;;;;;15.98;45.42;101562.03;5103077;27;45264;-73
2022/06/02 02:56:50;;;;;;;;;5.25;5.00;;;;;15.97;45.46;101565.66;5103030;27;45470;-73
2022/06/02 02:59:31;;;;;;;;;5.00;5.00;;;;;15.94;45.70;101572.97;5103197;27;45438;-73
2022/06/02 03:02:19;;;;;;;;;4.00;4.00;;;;;15.93;45.73;101566.81;5085001;27;45308;-74
2022/06/02 03:05:06;;;;;;;;;9.25;7.00;;;;;15.93;45.66;101560.63;5103361;27;45593;-75
2022/06/02 03:07:32;;;;;;;;;5.25;5.25;;;;;15.93;45.90;101566.81;5103207;27;45446;-74
2022/06/02 03:10:04;;;;;;;;;5.25;5.25;;;;;15.93;45.79;101565.94;5103044;27;45520;-74
2022/06/02 03:12:48;;;;;;;;;4.00;4.00;;;;;15.90;45.79;101567.88;5103588;27;45233;-75
2022/06/02 03:15:35;;;;;;;;;5.50;5.50;;;;;15.90;46.13;101556.41;5101525;27;45995;-74
2022/06/02 03:18:12;;;;;;;;;6.50;5.25;;;;;15.85;46.11;101561.16;5103098;27;45344;-73
2022/06/02 03:20:46;;;;;;;;;4.50;4.00;;;;;15.81;45.99;101552.56;5103365;27;45488;-73
2022/06/02 03:23:28;;;;;;;;;6.00;4.50;;;;;15.79;46.06;101554.44;5103057;27;45307;-73
2022/06/02 03:26:04;;;;;;;;;5.25;4.50;;;;;15.73;46.36;101554.88;5102761;27;45301;-73
2022/06/02 03:28:55;;;;;;;;;6.75;6.75;;;;;15.70;45.95;101556.88;5103085;27;45313;-75
2022/06/02 03:31:35;;;;;;;;;6.50;6.50;;;;;15.70;46.34;101560.41;5103095;27;45185;-73
2022/06/02 03:34:29;;;;;;;;;7.00;6.00;;;;;15.70;46.28;101568.34;5102827;27;45682;-74
2022/06/02 03:37:22;;;;;;;;;6.75;6.50;;;;;15.70;46.33;101567.50;5102637;27;45661;-73
2022/06/02 03:40:05;;;;;;;;;4.50;4.00;;;;;15.66;46.25;101580.16;5102673;27;45235;-73
2022/06/02 03:42:47;;;;;;;;;6.50;6.50;;;;;15.65;46.32;101580.28;5102796;27;45298;-74
2022/06/02 03:45:42;;;;;;;;;6.00;5.00;;;;;15.62;46.47;101589.28;5102968;27;45306;-76
2022/06/02 03:48:58;;;;;;;;;7.00;6.00;;;;;15.65;46.43;101580.28;5102703;27;45631;-74
2022/06/02 03:52:10;;;;;;;;;8.00;7.00;;;;;15.63;46.54;101583.84;5037127;28;45567;-75
2022/06/02 03:54:54;;;;;;;;;6.75;6.75;;;;;15.62;46.41;101590.13;5091496;27;45288;-75
2022/06/02 03:57:57;;;;;;;;;5.00;5.00;;;;;15.64;46.75;101595.34;5102660;27;45223;-75
2022/06/02 04:00:44;;;;;;;;;5.50;5.50;;;;;15.60;47.14;101578.72;5102375;27;45421;-73
2022/06/02 04:03:18;;;;;;;;;5.50;5.50;;;;;15.60;46.55;101573.41;5102566;27;45292;-73
2022/06/02 04:06:15;;;;;;;;;6.00;6.00;;;;;15.58;46.69;101570.03;5102224;27;46342;-73
2022/06/02 04:08:46;;;;;;;;;6.50;6.25;;;;;15.56;46.75;101573.72;5083721;27;45510;-73
2022/06/02 04:11:12;;;;;;;;;8.25;7.75;;;;;15.56;46.74;101585.22;5102108;27;46699;-72
2022/06/02 04:13:59;;;;;;;;;6.00;5.75;;;;;15.54;46.83;101587.09;5102020;27;45367;-73
2022/06/02 04:16:48;;;;;;;;;6.25;6.00;;;;;15.55;47.09;101586.13;5102412;27;45483;-72
2022/06/02 04:23:11;;;;;;;;;8.00;6.00;;;;;15.49;47.21;101594.53;5018888;28;45444;-72
2022/06/02 04:25:44;;;;;;;;;8.50;5.50;;;;;15.50;47.13;101590.06;5093429;27;45416;-73
2022/06/02 04:28:25;;;;;;;;;9.00;7.00;;;;;15.53;47.18;101589.84;5102410;27;45318;-73
2022/06/02 04:31:22;;;;;;;;;7.25;7.00;;;;;15.56;47.10;101587.88;5102054;27;45505;-73
2022/06/02 04:33:56;;;;;;;;;5.25;5.25;;;;;15.56;47.32;101594.97;5101813;27;45513;-73
2022/06/02 04:36:47;;;;;;;;;8.50;6.25;;;;;15.61;47.17;101596.41;5101905;27;45510;-74
2022/06/02 04:39:22;;;;;;;;;8.25;6.00;;;;;15.66;47.13;101598.75;5101732;27;45477;-74
2022/06/02 04:42:05;;;;;;;;;7.75;7.50;;;;;15.72;47.37;101611.63;5101873;27;45322;-74
2022/06/02 04:44:50;;;;;;;;;7.50;5.75;;;;;15.73;47.23;101609.81;5101742;27;46306;-73
2022/06/02 04:47:54;;;;;;;;;7.75;7.75;;;;;15.75;47.29;101614.06;5101781;27;45413;-73
2022/06/02 04:50:37;;;;;;;;;8.00;7.00;;;;;15.79;47.18;101620.00;5102932;27;45468;-74
2022/06/02 04:53:29;;;;;;;;;7.75;7.75;;;;;15.79;47.08;101610.25;5103225;27;45289;-73
2022/06/02 04:56:14;;;;;;;;;9.75;7.00;;;;;15.77;47.20;101609.50;5100872;27;45463;-73
2022/06/02 04:59:11;;;;;;;;;7.75;7.25;;;;;15.78;47.33;101619.16;5101062;27;45315;-73
2022/06/02 05:02:01;;;;;;;;;6.50;6.50;;;;;15.76;47.21;101615.78;5098995;27;45507;-73
2022/06/02 05:04:52;;;;;;;;;13.75;8.75;;;;;15.72;47.13;101608.97;5101450;27;45562;-73
2022/06/02 05:07:18;;;;;;;;;10.00;8.00;;;;;15.72;47.42;101608.09;5100803;27;45492;-73
2022/06/02 05:10:14;;;;;;;;;4.75;4.75;;;;;15.72;47.30;101603.66;5100896;27;45486;-73
2022/06/02 05:12:49;;;;;;;;;9.00;6.75;;;;;15.69;47.15;101601.19;5100921;27;45394;-73
2022/06/02 05:15:30;;;;;;;;;8.50;6.50;;;;;15.69;47.38;101610.97;5100847;27;45473;-73
2022/06/02 05:18:22;;;;;;;;;11.25;8.50;;;;;15.75;47.32;101610.56;5103662;27;46116;-73
2022/06/02 05:21:18;;;;;;;;;9.50;9.00;;;;;15.76;47.41;101604.28;5104599;27;45226;-74
2022/06/02 05:24:00;;;;;;;;;7.50;7.50;;;;;15.81;47.45;101599.53;5082586;28;45235;-73
2022/06/02 05:26:43;;;;;;;;;11.50;8.75;;;;;15.82;47.51;101606.53;5102308;27;45244;-73
2022/06/02 05:29:31;;;;;;;;;8.75;8.00;;;;;15.84;47.63;101616.09;5104320;27;45327;-73
2022/06/02 05:32:22;;;;;;;;;10.75;8.25;;;;;15.87;47.44;101602.59;5101254;27;45832;-72
2022/06/02 05:35:09;;;;;;;;;11.00;7.00;;;;;15.90;47.49;101606.88;5090889;27;45441;-72
2022/06/02 05:38:02;;;;;;;;;9.25;9.00;;;;;15.94;47.61;101600.38;5100799;27;45645;-73
2022/06/02 05:40:38;;;;;;;;;11.50;9.00;;;;;16.01;47.75;101607.00;5105931;27;45525;-64
2022/06/02 05:43:36;;;;;;;;;8.50;8.00;;;;;16.06;47.58;101607.53;5083623;28;45319;-65
2022/06/02 05:46:27;;;;;;;;;9.75;9.00;;;;;16.08;47.70;101608.28;5098155;27;45816;-66
2022/06/02 05:49:14;;;;;;;;;9.75;9.75;;;;;16.12;47.72;101616.91;5091227;27;45341;-66
2022/06/02 05:52:03;;;;;;;;;8.75;8.75;;;;;16.15;47.75;101608.72;5083206;27;46112;-66
2022/06/02 05:54:47;;;;;;;;;15.75;11.00;;;;;16.15;47.69;101606.06;5071832;27;45241;-65
2022/06/02 05:57:43;;;;;;;;;10.00;9.50;;;;;16.15;47.69;101614.03;5103782;27;45247;-64
2022/06/02 06:00:23;;;;;;;;;10.25;8.75;;;;;16.16;47.87;101613.91;5104157;27;45260;-64
2022/06/02 06:03:16;;;;;;;;;8.25;7.25;;;;;16.23;47.64;101610.84;5103854;27;45445;-63
2022/06/02 06:05:46;;;;;;;;;8.50;8.00;;;;;16.31;47.68;101611.16;5103490;27;45688;-65
2022/06/02 06:08:37;;;;;;;;;11.75;9.50;;;;;16.37;47.65;101608.09;5102405;27;45283;-66
2022/06/02 06:11:20;;;;;;;;;10.50;8.75;;;;;16.41;47.59;101612.22;5096865;27;45710;-65
2022/06/02 06:14:14;;;;;;;;;11.00;8.75;;;;;16.44;47.82;101612.03;5092181;27;46178;-64
2022/06/02 06:16:58;;;;;;;;;10.50;8.75;;;;;16.49;47.80;101601.88;5083792;27;45641;-64
2022/06/02 06:19:44;;;;;;;;;12.00;9.50;;;;;16.62;47.80;101615.19;5102636;27;45410;-64
2022/06/02 06:22:19;;;;;;;;;14.25;11.00;;;;;16.69;47.76;101619.16;5102770;27;45371;-63
2022/06/02 06:25:33;;;;;;;;;12.00;10.00;;;;;16.71;47.91;101615.41;5102102;27;46016;-64
2022/06/02 06:28:19;;;;;;;;;10.75;10.00;;;;;16.75;47.57;101608.06;5009019;28;45544;-64
2022/06/02 06:30:53;;;;;;;;;13.75;11.00;;;;;16.76;47.64;101608.94;5097001;27;45355;-64
2022/06/02 06:33:49;;;;;;;;;13.00;12.00;;;;;16.78;47.81;101612.31;5103290;27;45162;-64
2022/06/02 06:36:49;;;;;;;;;13.25;10.75;;;;;16.78;47.86;101610.50;5084937;27;45630;-64
2022/06/02 06:39:20;;;;;;;;;9.50;9.50;;;;;16.80;47.78;101605.91;5102997;27;45351;-63
2022/06/02 06:42:12;;;;;;;;;14.50;9.25;;;;;16.96;47.80;101590.53;5103108;27;45445;-63
2022/06/02 06:44:51;;;;;;;;;11.00;9.50;;;;;17.12;47.72;101605.41;5101770;27;45422;-63
2022/06/02 06:47:39;;;;;;;;;12.00;9.50;;;;;17.24;47.85;101602.69;5099775;27;46162;-62
2022/06/02 06:50:22;;;;;;;;;13.00;12.00;;;;;17.34;47.73;101596.69;5105819;27;45863;-67
2022/06/02 06:53:17;;;;;;;;;9.00;6.25;;;;;17.42;47.68;101600.50;5111070;27;45549;-66
2022/06/02 06:56:15;;;;;;;;;15.00;10.25;;;;;17.47;47.62;101602.81;5108124;27;45511;-66
2022/06/02 06:59:05;;;;;;;;;13.00;11.50;;;;;17.55;47.46;101597.78;5050205;27;45533;-66
2022/06/02 07:01:49;;;;;;;;;11.25;8.50;;;;;17.65;47.45;101601.44;5109925;27;45785;-64
2022/06/02 07:04:37;;;;;;;;;13.50;12.50;;;;;17.76;47.60;101611.31;5107458;27;45464;-63
2022/06/02 07:07:18;;;;;;;;;12.50;10.00;;;;;17.85;47.44;101613.25;5108244;27;45452;-63
2022/06/02 07:10:03;;;;;;;;;9.50;8.00;;;;;17.93;47.39;101612.69;5105311;27;45411;-63
2022/06/02 07:13:01;;;;;;;;;10.00;10.00;;;;;17.97;47.45;101611.50;5110246;27;45638;-64
2022/06/02 07:15:53;;;;;;;;;11.00;8.50;;;;;18.08;47.06;101617.69;5109846;27;45559;-63
2022/06/02 07:18:23;;;;;;;;;10.50;8.25;;;;;18.16;47.08;101611.78;5099869;27;45627;-66
2022/06/02 07:21:01;;;;;;;;;13.25;10.00;;;;;18.26;47.03;101614.59;5109078;27;45505;-66
2022/06/02 07:24:03;;;;;;;;;8.75;8.75;;;;;18.33;46.88;101623.81;5106523;27;45466;-66
2022/06/02 07:26:47;;;;;;;;;9.50;9.00;;;;;18.37;46.90;101620.78;5072257;27;45567;-62
2022/06/02 07:29:34;;;;;;;;;12.75;10.00;;;;;18.47;46.79;101615.56;5092344;27;45571;-62
2022/06/02 07:32:19;;;;;;;;;9.50;8.50;;;;;18.53;46.61;101611.56;5106973;27;46074;-62
2022/06/02 07:35:08;;;;;;;;;9.50;9.00;;;;;18.55;46.44;101610.47;5108355;27;45691;-65
2022/06/02 07:38:11;;;;;;;;;8.00;8.00;;;;;18.65;46.37;101623.97;5106794;27;45330;-63
2022/06/02 07:40:45;;;;;;;;;11.25;9.00;;;;;18.73;46.56;101620.72;5104895;27;45358;-62
2022/06/02 07:43:14;;;;;;;;;11.00;10.75;;;;;18.79;46.48;101618.38;5109694;27;46086;-63
2022/06/02 07:46:17;;;;;;;;;9.00;8.00;;;;;18.83;46.45;101619.00;5106965;27;45728;-66
2022/06/02 07:49:04;;;;;;;;;11.00;7.75;;;;;18.90;46.35;101623.72;5106031;27;45547;-63
2022/06/02 07:51:48;;;;;;;;;11.00;8.50;;;;;18.95;46.17;101618.00;5110433;27;45524;-62
2022/06/02 07:54:27;;;;;;;;;8.75;8.00;;;;;19.03;46.20;101614.72;5108976;27;45439;-64
2022/06/02 07:57:10;;;;;;;;;10.00;8.50;;;;;19.07;46.10;101617.03;5088357;27;45480;-63
2022/06/02 07:59:57;;;;;;;;;8.75;7.50;;;;;19.08;45.64;101609.84;5104914;27;45444;-65
2022/06/02 08:02:26;;;;;;;;;8.75;7.75;;;;;19.11;45.72;101612.28;5107037;27;45512;-62
2022/06/02 08:05:07;;;;;;;;;7.25;7.00;;;;;19.13;45.72;101608.53;5105446;27;46257;-67
2022/06/02 08:07:49;;;;;;;;;8.00;7.00;;;;;19.17;45.18;101601.09;5109517;27;45421;-65
2022/06/02 08:10:56;;;;;;;;;9.25;7.00;;;;;19.25;45.72;101599.50;5107627;27;45461;-65
2022/06/02 08:13:33;;;;;;;;;7.75;6.00;;;;;19.35;45.33;101598.72;5102016;27;45694;-64
2022/06/02 08:16:31;;;;;;;;;8.00;7.75;;;;;19.46;45.22;101588.88;5107002;27;45600;-63
2022/06/02 08:19:28;;;;;;;;;6.00;6.00;;;;;19.62;45.10;101585.78;5051034;27;45533;-64
2022/06/02 08:21:59;;;;;;;;;7.00;7.00;;;;;19.76;45.27;101589.97;5106941;27;45458;-65
2022/06/02 08:24:33;;;;;;;;;9.00;7.50;;;;;19.84;44.84;101586.66;5103362;27;45831;-62
2022/06/02 08:27:38;;;;;;;;;10.75;5.00;;;;;19.90;45.10;101584.28;5107968;27;45597;-65
2022/06/02 08:30:15;;;;;;;;;8.75;7.50;;;;;20.00;44.42;101587.03;5107781;27;45544;-63
2022/06/02 08:33:15;;;;;;;;;7.00;6.50;;;;;20.11;44.56;101589.63;5104648;27;45700;-64
2022/06/02 08:36:04;;;;;;;;;5.00;5.00;;;;;20.16;44.35;101573.19;5089698;27;45461;-64
2022/06/02 08:38:55;;;;;;;;;9.00;7.25;;;;;20.21;44.54;101579.81;5107707;27;46128;-65
2022/06/02 08:41:45;;;;;;;;;23.50;22.00;;;;;20.21;44.22;101566.44;5106930;27;46012;-65
2022/06/02 08:44:19;;;;;;;;;9.25;8.50;;;;;20.22;44.12;101564.63;5106106;27;45454;-65
2022/06/02 08:47:09;;;;;;;;;11.75;9.75;;;;;20.26;43.81;101568.75;5090917;27;45513;-64
2022/06/02 08:49:54;;;;;;;;;11.50;10.25;;;;;20.30;44.08;101563.00;5090381;27;46273;-65
2022/06/02 08:52:53;;;;;;;;;10.50;10.25;;;;;20.34;43.64;101561.75;5099978;27;45742;-65
2022/06/02 08:55:50;;;;;;;;;7.25;6.00;;;;;20.39;43.56;101555.16;5101503;27;45276;-67
2022/06/02 08:58:37;;;;;;;;;7.75;5.25;;;;;20.45;43.52;101551.94;5101012;27;45426;-64
2022/06/02 09:01:05;;;;;;;;;6.25;5.00;;;;;20.46;43.30;101559.88;5099052;27;45421;-65
2022/06/02 09:04:05;;;;;;;;;5.00;5.00;;;;;20.50;43.14;101555.06;5099345;27;45797;-65
2022/06/02 09:06:52;;;;;;;;;6.00;5.00;;;;;20.52;43.40;101558.44;5079798;27;45510;-65
2022/06/02 09:09:18;;;;;;;;;3.00;3.00;;;;;20.57;43.17;101557.06;5100546;27;45373;-65
2022/06/02 09:11:54;;;;;;;;;5.00;5.00;;;;;20.65;43.13;101566.25;5100195;27;45393;-64
2022/06/02 09:14:41;;;;;;;;;6.00;5.25;;;;;20.78;42.85;101556.16;5101307;27;45368;-65
2022/06/02 09:17:35;;;;;;;;;4.00;3.25;;;;;20.96;43.04;101557.19;5089508;27;45371;-65
2022/06/02 09:20:40;;;;;;;;;6.50;6.25;;;;;21.14;42.63;101551.97;5083592;27;45342;-65
2022/06/02 09:23:15;;;;;;;;;8.75;4.25;;;;;21.25;42.48;101554.53;5100888;27;45484;-65
2022/06/02 09:25:52;;;;;;;;;3.75;3.75;;;;;21.32;42.21;101546.78;5082790;27;45318;-64
2022/06/02 09:28:46;;;;;;;;;4.75;2.00;;;;;21.37;42.30;101545.38;5101524;27;45409;-65
2022/06/02 09:31:56;;;;;;;;;4.25;3.75;;;;;21.39;41.76;101551.44;5100967;27;45472;-65
2022/06/02 09:34:53;;;;;;;;;4.00;4.00;;;;;21.41;41.67;101551.34;4992450;28;47134;-65
2022/06/02 09:37:21;;;;;;;;;4.75;2.00;;;;;21.40;41.48;101555.81;5095824;27;45247;-65
2022/06/02 09:40:14;;;;;;;;;4.00;4.00;;;;;21.43;41.18;101560.91;5101223;27;45390;-65
2022/06/02 09:42:56;;;;;;;;;6.75;5.00;;;;;21.42;40.89;101551.19;5101119;27;45531;-64
2022/06/02 09:46:03;;;;;;;;;4.00;3.75;;;;;21.56;40.97;101549.03;5100874;27;45494;-64
2022/06/02 09:48:40;;;;;;;;;3.50;3.50;;;;;21.71;40.70;101542.25;5100939;27;45370;-65
2022/06/02 09:51:22;;;;;;;;;5.00;5.00;;;;;21.83;40.87;101542.94;5101023;27;45435;-65
2022/06/02 09:54:03;;;;;;;;;4.25;3.25;;;;;21.97;40.57;101542.50;5100588;27;45343;-65
2022/06/02 09:57:03;;;;;;;;;3.50;3.00;;;;;22.15;40.39;101553.34;5100436;27;45327;-65
2022/06/02 09:59:41;;;;;;;;;3.75;3.00;;;;;22.29;40.42;101547.50;5100407;27;45443;-64
2022/06/02 10:02:30;;;;;;;;;4.50;4.50;;;;;22.33;40.17;101562.31;5100612;27;45446;-65
2022/06/02 10:05:15;;;;;;;;;4.00;4.00;;;;;22.33;39.88;101559.63;5104163;27;45481;-65
2022/06/02 10:07:48;;;;;;;;;2.50;2.50;;;;;22.34;39.82;101563.16;5103932;27;45359;-65
2022/06/02 10:10:39;;;;;;;;;3.50;2.75;;;;;22.39;39.45;101555.50;5103838;27;45325;-66
2022/06/02 10:13:48;;;;;;;;;3.25;3.25;;;;;22.42;39.33;101556.06;5103950;27;45219;-65
2022/06/02 10:16:22;;;;;;;;;4.75;3.75;;;;;22.51;39.34;101552.50;5104174;27;45492;-65
2022/06/02 10:19:24;;;;;;;;;4.75;3.75;;;;;22.54;39.60;101544.13;5103892;27;46248;-64
2022/06/02 10:22:10;;;;;;;;;3.50;3.50;;;;;22.67;38.99;101541.13;5103333;27;45302;-65
2022/06/02 10:24:44;;;;;;;;;4.25;3.25;;;;;22.75;39.19;101545.69;5103669;27;45343;-65
2022/06/02 10:27:57;;;;;;;;;4.00;4.00;;;;;22.84;38.58;101534.91;5103669;27;45437;-65
2022/06/02 10:31:00;;;;;;;;;2.75;1.50;;;;;22.87;38.86;101527.59;5072450;27;46274;-64
2022/06/02 10:33:39;;;;;;;;;3.50;2.75;;;;;22.89;38.41;101536.31;5103486;27;45420;-64
2022/06/02 10:36:19;;;;;;;;;2.75;2.75;;;;;;;;5103203;27;45318;-65
2022/06/02 10:39:09;;;;;;;;;4.25;4.25;;;;;23.02;38.59;101531.44;5102862;27;45778;-64
2022/06/02 10:42:00;;;;;;;;;3.00;2.50;;;;;23.04;38.06;101541.03;5103158;27;46299;-65
2022/06/02 10:44:44;;;;;;;;;2.50;2.50;;;;;23.09;38.35;101527.16;5103384;27;45269;-65
2022/06/02 10:47:50;;;;;;;;;2.75;2.75;;;;;23.16;38.02;101525.53;5103086;27;45501;-64
2022/06/02 10:50:40;;;;;;;;;4.75;3.25;;;;;23.24;37.83;101519.38;5102803;27;45393;-65
2022/06/02 10:53:43;;;;;;;;;6.00;4.75;;;;;23.33;37.90;101524.69;5102665;27;46110;-65
2022/06/02 10:56:53;;;;;;;;;7.00;4.00;;;;;23.40;37.83;101523.06;5102880;27;45277;-64
2022/06/02 10:59:56;;;;;;;;;4.00;3.25;;;;;23.42;37.94;101514.84;5103180;27;45322;-65
2022/06/02 11:02:44;;;;;;;;;5.50;5.50;;;;;23.40;37.41;101523.06;5103403;27;45552;-65
2022/06/02 11:05:45;;;;;;;;;5.00;4.00;;;;;23.44;37.23;101520.91;5102659;27;46211;-65
2022/06/02 11:08:34;;;;;;;;;3.00;3.00;;;;;23.43;37.75;101504.91;5102495;27;45334;-64
2022/06/02 11:11:23;;;;;;;;;5.25;4.75;;;;;23.53;37.75;101508.34;5103027;27;45252;-63
2022/06/02 11:14:13;;;;;;;;;3.75;3.75;;;;;23.54;37.52;101500.16;5103062;27;45284;-64
2022/06/02 11:16:57;;;;;;;;;3.75;3.75;;;;;23.56;37.18;101500.84;5102603;27;45315;-64
2022/06/02 11:19:50;;;;;;;;;7.00;5.25;;;;;23.54;37.61;101489.41;5102633;27;45264;-64
2022/06/02 11:22:53;;;;;;;;;4.00;4.00;;;;;23.53;37.19;101484.16;5102632;27;45355;-64
2022/06/02 11:26:06;;;;;;;;;6.00;5.00;;;;;23.49;37.20;101490.84;5102629;27;45310;-65
2022/06/02 11:28:56;;;;;;;;;4.50;4.50;;;;;23.55;37.16;101485.69;4999568;28;45499;-64
2022/06/02 11:31:51;;;;;;;;;7.50;6.00;;;;;23.63;37.40;101477.72;4999468;28;45353;-64
2022/06/02 11:34:51;;;;;;;;;7.00;5.75;;;;;23.74;37.47;101478.44;5059877;27;45488;-64
2022/06/02 11:37:57;;;;;;;;;4.00;3.00;;;;;23.79;37.52;101468.91;5102157;27;45630;-64
2022/06/02 11:40:46;;;;;;;;;5.25;5.25;;;;;23.84;37.49;101469.25;5102242;27;46102;-64
2022/06/02 11:43:17;;;;;;;;;9.25;6.00;;;;;23.87;36.91;101457.34;5102603;27;45376;-64
2022/06/02 11:46:19;;;;;;;;;5.25;5.25;;;;;23.89;36.86;101461.56;5102390;27;45224;-65
2022/06/02 11:49:14;;;;;;;;;5.50;4.00;;;;;23.97;37.54;101460.75;5102445;27;45336;-66
2022/06/02 11:52:12;;;;;;;;;5.25;3.00;;;;;24.05;36.76;101454.56;5102677;27;45427;-65
2022/06/02 11:54:43;;;;;;;;;4.00;3.00;;;;;24.10;37.17;101457.63;5080368;28;45192;-64
2022/06/02 11:57:33;;;;;;;;;3.50;3.50;;;;;24.02;36.55;101453.06;5098937;27;45326;-65
2022/06/02 12:00:17;;;;;;;;;4.25;3.00;;;;;24.05;36.33;101457.25;5102332;27;45271;-65
2022/06/02 12:03:04;;;;;;;;;2.00;2.00;;;;;23.95;36.56;101452.84;5102128;27;45227;-65
2022/06/02 12:06:03;;;;;;;;;2.00;2.00;;;;;23.97;36.44;101458.06;5083542;27;45275;-65
2022/06/02 12:08:47;;;;;;;;;4.50;2.00;;;;;24.01;36.30;101451.34;5102046;27;45362;-65
2022/06/02 12:11:41;;;;;;;;;3.00;3.00;;;;;24.00;36.19;101454.19;5102272;27;45307;-65
2022/06/02 12:14:31;;;;;;;;;4.00;2.00;;;;;24.15;36.10;101450.72;5026422;28;45345;-65
2022/06/02 12:17:18;;;;;;;;;4.75;2.50;;;;;24.26;35.72;101438.84;5089138;27;45299;-65
2022/06/02 12:20:21;;;;;;;;;2.00;2.00;;;;;24.18;35.87;101434.28;5102157;27;45249;-66
2022/06/02 12:23:32;;;;;;;;;4.00;3.75;;;;;24.25;35.68;101442.50;5101754;27;45651;-65
2022/06/02 12:26:10;;;;;;;;;4.50;2.00;;;;;24.33;35.23;101436.34;5050604;27;46321;-65
2022/06/02 12:29:08;;;;;;;;;3.00;3.00;;;;;24.46;35.52;101436.72;5101991;27;45231;-66
2022/06/02 12:31:52;;;;;;;;;2.00;2.00;;;;;24.59;35.28;101433.56;5094651;27;45383;-65
2022/06/02 12:34:35;;;;;;;;;3.00;3.00;;;;;24.68;34.56;101421.81;5098402;27;45775;-65
2022/06/02 12:37:01;;;;;;;;;5.00;3.00;;;;;24.65;34.65;101419.44;5101565;27;46263;-65
2022/06/02 12:39:54;;;;;;;;;2.50;2.50;;;;;24.54;34.77;101408.97;5101469;27;45298;-66
2022/06/02 12:42:38;;;;;;;;;1.50;1.50;;;;;24.48;34.12;101411.31;5101657;27;45327;-66
2022/06/02 12:45:12;;;;;;;;;3.00;2.25;;;;;24.46;34.10;101407.09;5102030;27;45336;-65
2022/06/02 12:48:15;;;;;;;;;2.50;2.00;;;;;24.51;33.83;101404.78;5101201;27;45414;-65
2022/06/02 12:50:40;;;;;;;;;4.25;4.00;;;;;24.56;33.86;101399.72;5101366;27;45443;-65
2022/06/02 12:53:20;;;;;;;;;3.00;3.00;;;;;24.57;34.23;101396.03;5101601;27;45474;-65
2022/06/02 12:56:07;;;;;;;;;3.50;3.50;;;;;24.62;33.94;101387.44;5101488;27;45347;-65
2022/06/02 12:58:35;;;;;;;;;2.50;2.25;;;;;24.72;33.57;101396.19;5101223;27;46187;-65
2022/06/02 13:01:26;;;;;;;;;3.00;3.00;;;;;24.77;33.48;101394.69;5101498;27;45409;-65